createdAt,value
2017-11-27T00:02:20.992Z,19.10
2017-11-27T00:02:58.257Z,20.00
2017-11-27T00:03:58.265Z,20.30
2017-11-27T00:04:58.263Z,22.30
2017-11-27T00:05:58.565Z,20.80
2017-11-27T00:06:58.277Z,20.20
2017-11-27T00:07:58.285Z,21.30
2017-11-27T00:08:58.352Z,20.50
2017-11-27T00:09:58.296Z,20.40
2017-11-27T00:10:58.302Z,19.90
2017-11-27T00:11:58.309Z,23.20
2017-11-27T00:12:58.312Z,23.80
2017-11-27T00:13:58.364Z,18.40
2017-11-27T00:14:58.321Z,22.60
2017-11-27T00:15:58.327Z,19.30
2017-11-27T00:16:58.336Z,18.60
2017-11-27T00:17:58.340Z,18.20
2017-11-27T00:19:58.363Z,20.30
2017-11-27T00:20:58.364Z,20.30
2017-11-27T00:21:58.354Z,20.20
2017-11-27T00:22:58.365Z,19.50
2017-11-27T00:23:58.381Z,19.60
2017-11-27T00:24:58.376Z,20.70
2017-11-27T00:25:58.393Z,21.30
2017-11-27T00:26:58.390Z,19.40
2017-11-27T00:27:58.388Z,24.00
2017-11-27T00:28:58.410Z,19.80
2017-11-27T00:29:58.415Z,19.30
2017-11-27T00:30:58.410Z,23.00
2017-11-27T00:31:58.432Z,21.30
2017-11-27T00:32:58.415Z,21.40
2017-11-27T00:33:58.445Z,21.50
2017-11-27T00:34:58.438Z,22.60
2017-11-27T00:35:58.436Z,23.30
2017-11-27T00:36:58.464Z,21.10
2017-11-27T00:37:58.442Z,19.50
2017-11-27T00:38:58.455Z,17.30
2017-11-27T00:39:58.457Z,21.70
2017-11-27T00:40:58.461Z,20.10
2017-11-27T00:41:58.532Z,25.10
2017-11-27T00:42:58.499Z,22.30
2017-11-27T00:43:58.482Z,22.60
2017-11-27T00:44:58.482Z,18.70
2017-11-27T00:45:58.499Z,19.30
2017-11-27T00:46:58.502Z,17.10
2017-11-27T00:47:58.501Z,26.10
2017-11-27T00:48:58.502Z,18.90
2017-11-27T00:49:58.512Z,22.20
2017-11-27T00:50:58.519Z,20.60
2017-11-27T00:51:58.571Z,19.60
2017-11-27T00:52:58.523Z,19.50
2017-11-27T00:53:58.541Z,20.40
2017-11-27T00:54:58.613Z,17.20
2017-11-27T00:55:58.541Z,19.40
2017-11-27T00:56:58.540Z,17.50
2017-11-27T00:57:58.559Z,15.20
2017-11-27T00:58:58.560Z,24.00
2017-11-27T01:00:58.582Z,15.00
2017-11-27T01:01:58.580Z,17.20
2017-11-27T01:02:58.583Z,15.40
2017-11-27T01:03:58.585Z,14.20
2017-11-27T01:04:58.599Z,14.90
2017-11-27T01:05:58.599Z,18.60
2017-11-27T01:06:58.606Z,17.10
2017-11-27T01:07:58.611Z,18.60
2017-11-27T01:08:58.618Z,16.10
2017-11-27T01:09:58.628Z,17.50
2017-11-27T01:10:58.634Z,15.90
2017-11-27T01:11:58.645Z,18.90
2017-11-27T01:12:58.638Z,15.60
2017-11-27T01:13:58.647Z,23.80
2017-11-27T01:14:58.649Z,16.30
2017-11-27T01:15:58.696Z,14.80
2017-11-27T01:16:58.676Z,17.40
2017-11-27T01:17:58.657Z,14.40
2017-11-27T01:18:58.673Z,15.00
2017-11-27T01:19:58.755Z,16.50
2017-11-27T01:20:58.684Z,13.80
2017-11-27T01:21:58.690Z,14.30
2017-11-27T01:22:58.762Z,16.60
2017-11-27T01:23:58.704Z,18.10
2017-11-27T01:24:58.706Z,16.90
2017-11-27T01:25:58.705Z,16.20
2017-11-27T01:26:58.714Z,19.20
2017-11-27T01:27:58.716Z,13.90
2017-11-27T01:28:58.722Z,15.40
2017-11-27T01:30:58.742Z,16.90
2017-11-27T01:31:58.743Z,16.40
2017-11-27T01:32:59.218Z,19.20
2017-11-27T01:33:58.750Z,18.50
2017-11-27T01:34:58.754Z,16.70
2017-11-27T01:35:58.768Z,17.70
2017-11-27T01:36:58.766Z,21.40
2017-11-27T01:37:59.068Z,16.10
2017-11-27T01:38:58.781Z,17.00
2017-11-27T01:39:58.784Z,17.40
2017-11-27T01:40:58.792Z,16.40
2017-11-27T01:41:58.791Z,19.80
2017-11-27T01:42:58.835Z,20.20
2017-11-27T01:43:58.811Z,17.90
2017-11-27T01:44:59.009Z,19.10
2017-11-27T01:45:58.816Z,17.10
2017-11-27T01:46:58.823Z,19.00
2017-11-27T01:47:58.836Z,21.40
2017-11-27T01:48:58.836Z,19.80
2017-11-27T01:49:58.840Z,19.50
2017-11-27T01:50:58.861Z,17.10
2017-11-27T01:51:58.852Z,15.00
2017-11-27T01:52:58.853Z,19.70
2017-11-27T01:53:58.870Z,17.20
2017-11-27T01:54:58.876Z,20.90
2017-11-27T01:55:58.874Z,17.60
2017-11-27T01:56:58.888Z,18.00
2017-11-27T01:57:58.890Z,18.10
2017-11-27T01:58:58.884Z,18.30
2017-11-27T01:59:58.907Z,14.30
2017-11-27T02:00:58.901Z,18.50
2017-11-27T02:01:58.916Z,17.80
2017-11-27T02:02:58.923Z,16.00
2017-11-27T02:03:58.935Z,18.70
2017-11-27T02:04:58.932Z,21.60
2017-11-27T02:05:58.933Z,18.90
2017-11-27T02:06:58.968Z,17.80
2017-11-27T02:07:58.948Z,19.20
2017-11-27T02:08:58.950Z,19.00
2017-11-27T02:09:58.965Z,19.10
2017-11-27T02:10:58.959Z,18.90
2017-11-27T02:11:58.962Z,19.40
2017-11-27T02:12:58.976Z,24.60
2017-11-27T02:13:58.993Z,14.70
2017-11-27T02:14:58.988Z,16.90
2017-11-27T02:15:58.990Z,13.40
2017-11-27T02:16:59.033Z,22.00
2017-11-27T02:17:58.997Z,16.40
2017-11-27T02:18:59.006Z,16.80
2017-11-27T02:19:59.010Z,21.00
2017-11-27T02:20:59.014Z,17.30
2017-11-27T02:21:59.034Z,21.40
2017-11-27T02:22:59.024Z,23.40
2017-11-27T02:23:59.026Z,21.20
2017-11-27T02:24:59.037Z,17.60
2017-11-27T02:25:59.042Z,22.40
2017-11-27T02:26:59.051Z,19.90
2017-11-27T02:27:59.055Z,19.30
2017-11-27T02:28:59.075Z,19.00
2017-11-27T02:29:59.069Z,16.50
2017-11-27T02:30:59.073Z,19.50
2017-11-27T02:31:59.079Z,20.80
2017-11-27T02:32:59.081Z,17.30
2017-11-27T02:33:59.088Z,23.80
2017-11-27T02:34:59.093Z,20.70
2017-11-27T02:35:59.099Z,20.30
2017-11-27T02:36:59.111Z,24.10
2017-11-27T02:37:59.145Z,20.50
2017-11-27T02:38:59.118Z,15.30
2017-11-27T02:39:59.117Z,17.80
2017-11-27T02:40:59.131Z,24.90
2017-11-27T02:41:59.175Z,17.60
2017-11-27T02:42:59.140Z,22.50
2017-11-27T02:43:59.150Z,19.30
2017-11-27T02:44:59.157Z,19.20
2017-11-27T02:45:59.161Z,21.90
2017-11-27T02:46:59.176Z,20.30
2017-11-27T02:48:59.486Z,16.30
2017-11-27T02:49:59.181Z,18.80
2017-11-27T02:50:59.190Z,18.30
2017-11-27T02:51:59.185Z,14.50
2017-11-27T02:53:59.200Z,19.20
2017-11-27T02:54:59.229Z,22.70
2017-11-27T02:55:59.205Z,20.20
2017-11-27T02:56:59.229Z,19.00
2017-11-27T02:57:59.224Z,20.50
2017-11-27T02:58:59.235Z,21.90
2017-11-27T02:59:59.234Z,20.20
2017-11-27T03:00:59.235Z,21.80
2017-11-27T03:01:59.245Z,23.30
2017-11-27T03:02:59.253Z,17.00
2017-11-27T03:03:59.249Z,23.20
2017-11-27T03:05:00.219Z,22.80
2017-11-27T03:05:59.265Z,19.90
2017-11-27T03:06:59.273Z,19.20
2017-11-27T03:07:59.278Z,18.70
2017-11-27T03:08:59.286Z,22.90
2017-11-27T03:09:59.286Z,23.30
2017-11-27T03:10:59.296Z,21.40
2017-11-27T03:11:59.300Z,22.70
2017-11-27T03:12:59.306Z,22.30
2017-11-27T03:13:59.344Z,17.20
2017-11-27T03:14:59.315Z,21.70
2017-11-27T03:15:59.323Z,14.60
2017-11-27T03:16:59.329Z,22.10
2017-11-27T03:17:59.331Z,18.40
2017-11-27T03:18:59.334Z,18.30
2017-11-27T03:19:59.351Z,18.90
2017-11-27T03:20:59.348Z,19.60
2017-11-27T03:21:59.387Z,21.90
2017-11-27T03:22:59.364Z,19.50
2017-11-27T03:23:59.368Z,20.70
2017-11-27T03:24:59.406Z,19.70
2017-11-27T03:25:59.380Z,19.40
2017-11-27T03:26:59.385Z,19.20
2017-11-27T03:27:59.394Z,22.10
2017-11-27T03:28:59.393Z,14.90
2017-11-27T03:29:59.406Z,16.70
2017-11-27T03:30:59.414Z,19.90
2017-11-27T03:31:59.420Z,17.30
2017-11-27T03:32:59.488Z,21.20
2017-11-27T03:33:59.420Z,22.00
2017-11-27T03:34:59.437Z,19.20
2017-11-27T03:35:59.436Z,19.30
2017-11-27T03:36:59.442Z,20.70
2017-11-27T03:37:59.453Z,18.90
2017-11-27T03:38:59.447Z,16.00
2017-11-27T03:39:59.459Z,20.60
2017-11-27T03:40:59.459Z,14.20
2017-11-27T03:41:59.471Z,19.10
2017-11-27T03:42:59.471Z,26.40
2017-11-27T03:43:59.493Z,19.40
2017-11-27T03:44:59.488Z,20.10
2017-11-27T03:45:59.491Z,17.60
2017-11-27T03:46:59.506Z,18.10
2017-11-27T03:47:59.503Z,19.90
2017-11-27T03:48:59.506Z,20.10
2017-11-27T03:49:59.518Z,18.50
2017-11-27T03:50:59.517Z,18.60
2017-11-27T03:51:59.531Z,18.10
2017-11-27T03:52:59.537Z,15.30
2017-11-27T03:53:59.542Z,18.40
2017-11-27T03:54:59.559Z,16.40
2017-11-27T03:55:59.555Z,17.70
2017-11-27T03:56:59.582Z,15.20
2017-11-27T03:57:59.568Z,16.20
2017-11-27T03:58:59.563Z,12.20
2017-11-27T03:59:59.576Z,22.00
2017-11-27T04:00:59.583Z,17.50
2017-11-27T04:01:59.588Z,18.40
2017-11-27T04:02:59.596Z,22.40
2017-11-27T04:03:59.856Z,23.10
2017-11-27T04:04:59.617Z,19.80
2017-11-27T04:05:59.616Z,18.10
2017-11-27T04:06:59.617Z,15.60
2017-11-27T04:07:59.658Z,16.20
2017-11-27T04:08:59.635Z,17.50
2017-11-27T04:09:59.633Z,13.90
2017-11-27T04:10:59.638Z,15.30
2017-11-27T04:11:59.650Z,18.30
2017-11-27T04:12:59.654Z,18.30
2017-11-27T04:13:59.653Z,19.40
2017-11-27T04:14:59.661Z,18.20
2017-11-27T04:15:59.671Z,17.30
2017-11-27T04:16:59.674Z,20.30
2017-11-27T04:17:59.677Z,17.20
2017-11-27T04:18:59.687Z,15.30
2017-11-27T04:19:59.779Z,20.80
2017-11-27T04:20:59.710Z,15.60
2017-11-27T04:21:59.707Z,18.60
2017-11-27T04:22:59.718Z,18.00
2017-11-27T04:23:59.712Z,15.60
2017-11-27T04:25:59.726Z,16.50
2017-11-27T04:26:59.747Z,19.00
2017-11-27T04:27:59.740Z,19.50
2017-11-27T04:28:59.747Z,16.20
2017-11-27T04:29:59.755Z,19.20
2017-11-27T04:30:59.764Z,16.90
2017-11-27T04:31:59.772Z,20.50
2017-11-27T04:32:59.776Z,14.30
2017-11-27T04:33:59.772Z,15.40
2017-11-27T04:34:59.796Z,13.70
2017-11-27T04:35:59.787Z,21.00
2017-11-27T04:36:59.817Z,18.90
2017-11-27T04:37:59.809Z,16.70
2017-11-27T04:38:59.802Z,16.30
2017-11-27T04:39:59.802Z,20.10
2017-11-27T04:40:59.815Z,19.10
2017-11-27T04:41:59.824Z,17.90
2017-11-27T04:42:59.910Z,17.10
2017-11-27T04:43:59.833Z,18.70
2017-11-27T04:44:59.843Z,17.60
2017-11-27T04:45:59.846Z,21.30
2017-11-27T04:46:59.948Z,14.80
2017-11-27T04:47:59.859Z,17.00
2017-11-27T04:48:59.862Z,18.00
2017-11-27T04:49:59.874Z,14.60
2017-11-27T04:50:59.874Z,24.00
2017-11-27T04:51:59.882Z,21.70
2017-11-27T04:55:05.260Z,20.00
2017-11-27T04:56:03.521Z,16.10
2017-11-27T04:57:03.518Z,15.50
2017-11-27T04:58:03.522Z,21.30
2017-11-27T04:59:03.533Z,22.10
2017-11-27T05:00:03.541Z,18.10
2017-11-27T05:01:03.550Z,19.50
2017-11-27T05:02:03.549Z,17.20
2017-11-27T05:03:03.553Z,18.70
2017-11-27T05:04:03.566Z,21.40
2017-11-27T05:05:03.573Z,21.10
2017-11-27T05:06:03.573Z,18.00
2017-11-27T05:07:03.579Z,22.30
2017-11-27T05:08:03.578Z,20.70
2017-11-27T05:09:03.609Z,16.60
2017-11-27T05:10:03.593Z,19.70
2017-11-27T05:11:03.604Z,14.80
2017-11-27T05:12:03.602Z,17.90
2017-11-27T05:13:03.612Z,23.20
2017-11-27T05:14:03.617Z,21.10
2017-11-27T05:15:03.627Z,24.90
2017-11-27T05:16:03.636Z,15.40
2017-11-27T05:17:03.637Z,22.20
2017-11-27T05:18:03.643Z,17.10
2017-11-27T05:19:03.650Z,19.90
2017-11-27T05:20:03.655Z,15.00
2017-11-27T05:21:03.698Z,14.40
2017-11-27T05:22:03.774Z,18.50
2017-11-27T05:23:03.694Z,15.20
2017-11-27T05:24:03.682Z,17.30
2017-11-27T05:25:03.683Z,21.60
2017-11-27T05:26:03.694Z,17.00
2017-11-27T05:27:03.694Z,16.50
2017-11-27T05:28:03.700Z,16.80
2017-11-27T05:29:03.718Z,13.20
2017-11-27T05:30:03.713Z,16.90
2017-11-27T05:31:03.721Z,17.60
2017-11-27T05:32:03.727Z,21.10
2017-11-27T05:33:03.735Z,13.40
2017-11-27T05:34:03.737Z,16.90
2017-11-27T05:35:03.754Z,12.90
2017-11-27T05:36:03.760Z,17.00
2017-11-27T05:37:03.759Z,17.00
2017-11-27T05:38:03.756Z,13.80
2017-11-27T05:39:03.771Z,16.40
2017-11-27T05:40:03.772Z,18.60
2017-11-27T05:41:03.776Z,15.90
2017-11-27T05:42:03.783Z,14.20
2017-11-27T05:43:03.785Z,13.20
2017-11-27T05:44:03.870Z,20.30
2017-11-27T05:45:03.813Z,18.00
2017-11-27T05:46:03.805Z,13.30
2017-11-27T05:47:03.809Z,13.90
2017-11-27T05:48:03.814Z,15.00
2017-11-27T05:49:03.820Z,19.20
2017-11-27T05:50:03.829Z,14.60
2017-11-27T05:51:03.832Z,17.60
2017-11-27T05:52:03.838Z,15.40
2017-11-27T05:53:03.846Z,15.00
2017-11-27T05:54:03.847Z,17.60
2017-11-27T05:56:03.874Z,17.50
2017-11-27T05:57:03.872Z,16.00
2017-11-27T05:58:03.880Z,12.70
2017-11-27T05:59:03.889Z,10.20
2017-11-27T06:00:03.888Z,16.10
2017-11-27T06:01:04.236Z,14.70
2017-11-27T06:02:03.897Z,15.70
2017-11-27T06:03:03.903Z,11.20
2017-11-27T06:04:03.907Z,11.90
2017-11-27T06:05:03.925Z,14.70
2017-11-27T06:06:03.927Z,11.70
2017-11-27T06:07:03.939Z,16.40
2017-11-27T06:08:04.070Z,15.00
2017-11-27T06:09:03.942Z,10.80
2017-11-27T06:10:03.940Z,10.70
2017-11-27T06:11:03.952Z,8.60
2017-11-27T06:12:03.963Z,12.30
2017-11-27T06:13:03.962Z,10.50
2017-11-27T06:14:03.965Z,9.30
2017-11-27T06:15:03.975Z,13.90
2017-11-27T06:16:03.979Z,9.20
2017-11-27T06:17:03.981Z,10.50
2017-11-27T06:18:03.989Z,14.10
2017-11-27T06:19:04.071Z,11.00
2017-11-27T06:20:04.000Z,11.60
2017-11-27T06:21:04.005Z,10.00
2017-11-27T06:22:04.005Z,10.20
2017-11-27T06:23:04.014Z,11.80
2017-11-27T06:24:04.025Z,13.30
2017-11-27T06:25:04.077Z,12.50
2017-11-27T06:26:04.041Z,10.50
2017-11-27T06:27:04.041Z,12.10
2017-11-27T06:28:04.046Z,17.30
2017-11-27T06:29:04.053Z,7.70
2017-11-27T06:30:04.280Z,14.00
2017-11-27T06:31:04.059Z,9.30
2017-11-27T06:32:04.071Z,10.70
2017-11-27T06:34:04.074Z,10.10
2017-11-27T06:35:04.311Z,10.20
2017-11-27T06:36:04.094Z,12.00
2017-11-27T06:37:04.092Z,15.90
2017-11-27T06:38:04.095Z,10.00
2017-11-27T06:39:04.109Z,10.10
2017-11-27T06:40:04.109Z,9.50
2017-11-27T06:41:04.115Z,9.20
2017-11-27T06:42:04.131Z,10.50
2017-11-27T06:43:04.132Z,8.40
2017-11-27T06:44:04.137Z,8.40
2017-11-27T06:45:04.136Z,9.70
2017-11-27T06:46:04.152Z,7.80
2017-11-27T06:47:04.151Z,8.10
2017-11-27T06:48:04.174Z,12.50
2017-11-27T06:49:04.164Z,7.70
2017-11-27T06:50:04.181Z,13.70
2017-11-27T06:51:04.178Z,8.50
2017-11-27T06:52:04.186Z,7.80
2017-11-27T06:53:04.204Z,7.10
2017-11-27T06:54:04.215Z,8.00
2017-11-27T06:55:04.223Z,6.90
2017-11-27T06:56:04.205Z,7.50
2017-11-27T06:57:04.232Z,10.00
2017-11-27T06:58:04.212Z,6.90
2017-11-27T06:59:04.225Z,4.50
2017-11-27T07:00:04.230Z,7.20
2017-11-27T07:01:04.232Z,8.10
2017-11-27T07:02:04.242Z,8.00
2017-11-27T07:03:04.245Z,9.20
2017-11-27T07:04:04.258Z,6.60
2017-11-27T07:05:04.265Z,12.90
2017-11-27T07:06:04.266Z,9.40
2017-11-27T07:07:04.272Z,12.40
2017-11-27T07:09:04.293Z,10.30
2017-11-27T07:10:04.289Z,7.20
2017-11-27T07:11:04.296Z,6.60
2017-11-27T07:12:04.302Z,5.00
2017-11-27T07:13:04.313Z,7.10
2017-11-27T07:14:04.306Z,8.70
2017-11-27T07:15:04.315Z,12.10
2017-11-27T07:16:04.318Z,6.40
2017-11-27T07:17:04.334Z,6.10
2017-11-27T07:18:04.330Z,7.50
2017-11-27T07:19:04.340Z,6.80
2017-11-27T07:20:04.434Z,7.80
2017-11-27T07:21:04.353Z,7.20
2017-11-27T07:22:04.363Z,7.90
2017-11-27T07:23:04.404Z,7.00
2017-11-27T07:24:04.372Z,8.80
2017-11-27T07:25:04.381Z,9.00
2017-11-27T07:26:04.408Z,8.40
2017-11-27T07:27:04.430Z,11.40
2017-11-27T07:28:04.386Z,9.20
2017-11-27T07:29:04.398Z,8.40
2017-11-27T07:30:04.414Z,8.90
2017-11-27T07:31:04.408Z,8.20
2017-11-27T07:32:04.431Z,5.90
2017-11-27T07:33:04.423Z,8.80
2017-11-27T07:34:04.426Z,9.80
2017-11-27T07:35:04.438Z,6.10
2017-11-27T07:36:04.432Z,6.50
2017-11-27T07:37:04.447Z,8.50
2017-11-27T07:38:04.460Z,8.00
2017-11-27T07:39:04.457Z,8.90
2017-11-27T07:40:04.464Z,5.20
2017-11-27T07:41:04.461Z,11.40
2017-11-27T07:42:04.475Z,9.40
2017-11-27T07:43:04.481Z,9.20
2017-11-27T07:45:04.499Z,7.90
2017-11-27T07:46:04.502Z,8.30
2017-11-27T07:48:04.623Z,6.30
2017-11-27T07:49:04.517Z,10.70
2017-11-27T07:50:04.522Z,8.10
2017-11-27T07:51:04.527Z,11.80
2017-11-27T07:52:04.532Z,6.10
2017-11-27T07:53:04.539Z,6.50
2017-11-27T07:54:04.607Z,8.00
2017-11-27T07:55:04.548Z,8.80
2017-11-27T07:56:04.560Z,7.90
2017-11-27T07:57:04.563Z,6.10
2017-11-27T07:58:04.570Z,10.20
2017-11-27T07:59:04.577Z,9.20
2017-11-27T08:00:04.580Z,6.60
2017-11-27T08:01:04.600Z,7.70
2017-11-27T08:02:04.593Z,12.60
2017-11-27T08:03:04.599Z,8.30
2017-11-27T08:04:04.604Z,5.80
2017-11-27T08:05:04.618Z,8.10
2017-11-27T08:06:04.642Z,7.70
2017-11-27T08:07:04.626Z,9.20
2017-11-27T08:08:04.625Z,7.20
2017-11-27T08:09:04.646Z,8.20
2017-11-27T08:11:38.254Z,7.40
2017-11-27T08:17:10.228Z,11.90
2017-11-27T08:18:10.234Z,6.80
2017-11-27T08:19:10.233Z,9.10
2017-11-27T08:20:10.244Z,4.80
2017-11-27T08:21:10.253Z,12.30
2017-11-27T08:22:10.256Z,6.90
2017-11-27T08:23:10.269Z,7.40
2017-11-27T08:24:10.261Z,8.20
2017-11-27T08:26:10.280Z,12.50
2017-11-27T08:28:10.289Z,8.70
2017-11-27T08:29:10.288Z,12.10
2017-11-27T08:30:10.299Z,12.20
2017-11-27T08:32:10.311Z,7.80
2017-11-27T08:34:10.325Z,12.40
2017-11-27T08:35:10.332Z,7.00
2017-11-27T08:37:10.340Z,12.00
2017-11-27T08:38:10.357Z,5.90
2017-11-27T08:39:10.346Z,10.40
2017-11-27T08:40:10.358Z,11.70
2017-11-27T08:41:10.358Z,9.80
2017-11-27T08:42:10.362Z,6.70
2017-11-27T08:43:10.370Z,8.60
2017-11-27T08:44:10.378Z,13.00
2017-11-27T08:45:10.384Z,11.20
2017-11-27T08:46:10.397Z,9.80
2017-11-27T08:47:10.391Z,11.70
2017-11-27T08:49:10.491Z,11.00
2017-11-27T08:50:10.440Z,8.90
2017-11-27T08:51:10.431Z,6.60
2017-11-27T08:52:10.419Z,12.70
2017-11-27T08:53:10.426Z,7.80
2017-11-27T08:54:10.432Z,6.70
2017-11-27T08:55:10.438Z,10.90
2017-11-27T08:56:10.443Z,7.70
2017-11-27T08:57:10.452Z,8.30
2017-11-27T08:58:10.458Z,11.00
2017-11-27T08:59:10.460Z,8.90
2017-11-27T09:00:10.469Z,8.80
2017-11-27T09:01:10.472Z,8.00
2017-11-27T09:02:10.480Z,11.30
2017-11-27T09:03:10.492Z,11.70
2017-11-27T09:04:10.528Z,9.00
2017-11-27T09:05:10.499Z,9.00
2017-11-27T09:06:10.503Z,6.30
2017-11-27T09:07:10.501Z,12.90
2017-11-27T09:08:10.510Z,6.40
2017-11-27T09:09:10.513Z,12.50
2017-11-27T09:10:10.532Z,8.70
2017-11-27T09:11:10.534Z,9.10
2017-11-27T09:12:10.535Z,12.60
2017-11-27T09:13:10.544Z,8.40
2017-11-27T09:14:11.235Z,12.40
2017-11-27T09:15:10.560Z,10.40
2017-11-27T09:16:10.565Z,12.10
2017-11-27T09:17:10.569Z,12.00
2017-11-27T09:18:10.620Z,15.60
2017-11-27T09:19:10.575Z,11.70
2017-11-27T09:20:10.584Z,13.90
2017-11-27T09:21:10.584Z,10.50
2017-11-27T09:22:10.594Z,11.80
2017-11-27T09:23:10.601Z,8.20
2017-11-27T09:24:10.611Z,6.10
2017-11-27T09:25:10.615Z,13.50
2017-11-27T09:26:10.624Z,5.30
2017-11-27T09:27:10.639Z,8.60
2017-11-27T09:28:10.625Z,9.20
2017-11-27T09:29:10.630Z,10.20
2017-11-27T09:30:10.638Z,12.50
2017-11-27T09:31:10.641Z,9.40
2017-11-27T09:32:10.652Z,12.10
2017-11-27T09:33:10.660Z,11.00
2017-11-27T09:34:10.665Z,12.20
2017-11-27T09:35:10.672Z,9.80
2017-11-27T09:36:10.675Z,8.40
2017-11-27T09:37:10.677Z,8.90
2017-11-27T09:38:10.686Z,7.60
2017-11-27T09:39:10.688Z,8.00
2017-11-27T09:40:10.693Z,10.90
2017-11-27T09:41:10.701Z,8.40
2017-11-27T09:42:10.716Z,5.80
2017-11-27T09:43:10.714Z,8.60
2017-11-27T09:44:10.718Z,12.80
2017-11-27T09:45:10.727Z,8.60
2017-11-27T09:46:10.730Z,10.80
2017-11-27T09:47:10.737Z,9.00
2017-11-27T09:48:10.747Z,7.50
2017-11-27T09:49:10.757Z,11.20
2017-11-27T09:50:10.763Z,15.30
2017-11-27T09:51:10.759Z,10.70
2017-11-27T09:52:11.238Z,6.50
2017-11-27T09:53:10.779Z,11.30
2017-11-27T09:54:10.773Z,10.90
2017-11-27T09:55:10.785Z,10.70
2017-11-27T09:56:10.792Z,9.70
2017-11-27T09:57:10.797Z,12.50
2017-11-27T09:58:10.796Z,9.30
2017-11-27T09:59:10.872Z,7.50
2017-11-27T10:00:10.819Z,8.30
2017-11-27T10:01:10.817Z,5.90
2017-11-27T10:02:10.829Z,11.10
2017-11-27T10:03:10.827Z,8.90
2017-11-27T10:04:10.834Z,8.50
2017-11-27T10:05:10.898Z,7.30
2017-11-27T10:06:10.846Z,9.60
2017-11-27T10:07:10.846Z,9.50
2017-11-27T10:08:10.851Z,12.90
2017-11-27T10:09:10.856Z,8.00
2017-11-27T10:10:10.869Z,8.20
2017-11-27T10:11:10.877Z,7.50
2017-11-27T10:12:10.979Z,6.40
2017-11-27T10:13:10.894Z,7.80
2017-11-27T10:14:10.889Z,6.80
2017-11-27T10:15:10.890Z,14.40
2017-11-27T10:16:10.901Z,11.90
2017-11-27T10:17:10.907Z,11.00
2017-11-27T10:18:10.930Z,15.90
2017-11-27T10:19:10.934Z,11.00
2017-11-27T10:20:10.927Z,11.00
2017-11-27T10:21:10.928Z,9.60
2017-11-27T10:22:10.937Z,11.40
2017-11-27T10:23:10.946Z,10.50
2017-11-27T10:24:10.948Z,11.50
2017-11-27T10:25:11.034Z,9.70
2017-11-27T10:26:10.958Z,11.70
2017-11-27T10:27:11.007Z,5.10
2017-11-27T10:28:10.980Z,8.30
2017-11-27T10:29:10.984Z,11.50
2017-11-27T10:30:10.980Z,12.80
2017-11-27T10:31:10.993Z,9.10
2017-11-27T10:32:11.005Z,6.30
2017-11-27T10:33:11.061Z,7.50
2017-11-27T10:34:11.012Z,3.80
2017-11-27T10:35:11.014Z,5.50
2017-11-27T10:37:11.474Z,7.30
2017-11-27T10:38:11.030Z,7.80
2017-11-27T10:40:11.069Z,7.40
2017-11-27T10:41:11.048Z,7.20
2017-11-27T10:42:11.057Z,7.40
2017-11-27T10:43:11.059Z,6.50
2017-11-27T10:44:11.070Z,6.00
2017-11-27T10:45:11.171Z,6.00
2017-11-27T10:46:11.082Z,7.50
2017-11-27T10:47:11.101Z,10.00
2017-11-27T10:48:11.146Z,7.40
2017-11-27T10:49:11.109Z,2.50
2017-11-27T10:50:11.113Z,4.80
2017-11-27T10:51:11.109Z,5.90
2017-11-27T10:52:11.118Z,2.10
2017-11-27T10:54:39.128Z,3.20
2017-11-27T10:59:51.581Z,3.50
2017-11-27T17:53:19.348Z,25.70
2017-11-27T17:54:19.363Z,30.80
2017-11-27T17:56:19.371Z,27.40
2017-11-27T17:57:19.380Z,25.90
2017-11-27T17:58:19.405Z,21.30
2017-11-27T18:00:19.401Z,14.40
2017-11-27T18:01:19.415Z,23.80
2017-11-27T18:02:19.416Z,22.50
2017-11-27T18:03:19.424Z,24.50
2017-11-27T18:04:19.428Z,21.50
2017-11-27T18:05:19.432Z,21.60
2017-11-27T18:06:19.448Z,22.10
2017-11-27T18:07:19.452Z,19.50
2017-11-27T18:08:19.470Z,16.70
2017-11-27T18:09:19.479Z,12.90
2017-11-27T18:10:19.485Z,15.10
2017-11-27T18:11:19.485Z,19.10
2017-11-27T18:12:19.485Z,21.70
2017-11-27T18:13:19.492Z,23.40
2017-11-27T18:15:19.514Z,25.40
2017-11-27T18:16:19.521Z,25.60
2017-11-27T18:17:19.535Z,22.00
2017-11-27T18:18:19.573Z,26.60
2017-11-27T18:19:19.554Z,22.50
2017-11-27T18:20:19.557Z,23.20
2017-11-27T18:21:19.562Z,22.50
2017-11-27T18:23:41.396Z,22.90
2017-11-27T18:29:23.162Z,24.90
2017-11-27T18:30:23.151Z,25.10
2017-11-27T18:31:23.174Z,31.00
2017-11-27T18:32:23.174Z,30.50
2017-11-27T18:33:23.183Z,31.90
2017-11-27T18:34:23.228Z,37.80
2017-11-27T18:35:23.198Z,35.50
2017-11-27T18:36:23.202Z,32.50
2017-11-27T18:37:23.212Z,28.10
2017-11-27T18:38:23.212Z,28.70
2017-11-27T18:39:23.232Z,21.30
2017-11-27T18:40:23.240Z,21.30
2017-11-27T18:42:23.252Z,22.70
2017-11-27T18:43:23.255Z,21.40
2017-11-27T18:44:23.350Z,24.20
2017-11-27T18:45:23.273Z,19.60
2017-11-27T18:46:23.282Z,18.20
2017-11-27T18:47:23.287Z,21.30
2017-11-27T18:48:23.292Z,22.30
2017-11-27T18:49:23.302Z,20.60
2017-11-27T18:50:23.307Z,25.20
2017-11-27T18:51:23.317Z,20.00
2017-11-27T18:52:23.331Z,19.50
2017-11-27T18:53:23.344Z,19.40
2017-11-27T18:54:23.341Z,17.10
2017-11-27T18:55:23.349Z,16.10
2017-11-27T18:56:23.365Z,16.60
2017-11-27T18:57:23.394Z,15.30
2017-11-27T18:58:23.366Z,14.80
2017-11-27T18:59:23.388Z,16.50
2017-11-27T19:00:23.394Z,16.40
2017-11-27T19:01:23.396Z,11.10
2017-11-27T19:02:23.396Z,10.20
2017-11-27T19:03:23.410Z,14.00
2017-11-27T19:05:57.985Z,9.20
2017-11-27T19:11:27.313Z,10.30
2017-11-27T19:12:27.316Z,7.00
2017-11-27T19:13:27.324Z,6.40
2017-11-27T19:14:27.352Z,7.00
2017-11-27T19:15:27.349Z,7.40
2017-11-27T19:16:27.365Z,8.80
2017-11-27T19:17:27.370Z,8.40
2017-11-27T19:18:27.372Z,6.60
2017-11-27T19:19:27.377Z,9.60
2017-11-27T19:20:27.377Z,9.30
2017-11-27T19:21:27.389Z,10.20
2017-11-27T19:22:27.392Z,9.00
2017-11-27T19:23:27.403Z,9.20
2017-11-27T19:24:27.412Z,7.90
2017-11-27T19:25:27.421Z,7.40
2017-11-27T19:26:27.420Z,5.30
2017-11-27T19:27:27.435Z,6.20
2017-11-27T19:28:27.452Z,5.40
2017-11-27T19:29:27.461Z,9.40
2017-11-27T19:30:27.462Z,6.90
2017-11-27T19:31:27.456Z,8.40
2017-11-27T19:32:27.464Z,6.80
2017-11-27T19:33:27.488Z,8.90
2017-11-27T19:34:27.485Z,10.30
2017-11-27T19:35:27.558Z,9.40
2017-11-27T19:36:27.507Z,10.50
2017-11-27T19:37:27.509Z,10.60
2017-11-27T19:38:27.521Z,13.30
2017-11-27T19:39:27.524Z,11.80
2017-11-27T19:40:27.530Z,12.80
2017-11-27T19:41:27.542Z,15.20
2017-11-27T19:42:27.538Z,12.20
2017-11-27T19:43:27.562Z,6.30
2017-11-27T19:44:27.562Z,6.50
2017-11-27T19:45:27.563Z,5.20
2017-11-27T19:46:27.587Z,4.70
2017-11-27T19:47:27.587Z,3.60
2017-11-27T19:48:27.595Z,3.50
2017-11-27T19:49:27.597Z,5.10
2017-11-27T19:50:27.611Z,5.60
2017-11-27T19:51:27.629Z,5.40
2017-11-27T19:52:27.624Z,4.60
2017-11-27T19:53:27.635Z,4.30
2017-11-27T19:54:27.639Z,6.10
2017-11-27T19:55:27.646Z,5.30
2017-11-27T19:56:27.647Z,10.00
2017-11-27T19:57:27.668Z,4.60
2017-11-27T19:58:27.657Z,8.00
2017-11-27T19:59:27.673Z,4.80
2017-11-27T20:00:27.678Z,4.90
2017-11-27T20:01:27.681Z,5.60
2017-11-27T20:02:27.704Z,7.30
2017-11-27T20:03:27.790Z,4.40
2017-11-27T20:04:27.709Z,3.10
2017-11-27T20:05:27.717Z,4.00
2017-11-27T20:06:27.716Z,5.00
2017-11-27T20:07:27.740Z,2.80
2017-11-27T20:08:27.733Z,5.40
2017-11-27T20:09:27.745Z,4.60
2017-11-27T20:10:27.748Z,3.30
2017-11-27T20:11:27.762Z,6.00
2017-11-27T20:12:27.765Z,3.00
2017-11-27T20:13:27.768Z,4.40
2017-11-27T20:14:27.778Z,5.50
2017-11-27T20:15:27.785Z,3.50
2017-11-27T20:16:27.794Z,4.30
2017-11-27T20:17:27.800Z,2.80
2017-11-27T20:18:27.845Z,4.30
2017-11-27T20:19:27.856Z,4.50
2017-11-27T20:20:27.823Z,4.90
2017-11-27T20:21:27.837Z,3.00
2017-11-27T20:22:27.833Z,5.90
2017-11-27T20:23:27.851Z,3.30
2017-11-27T20:24:27.851Z,5.00
2017-11-27T20:25:27.859Z,3.90
2017-11-27T20:26:27.868Z,4.30
2017-11-27T20:27:27.884Z,3.10
2017-11-27T20:28:27.875Z,3.10
2017-11-27T20:29:27.881Z,3.90
2017-11-27T20:30:27.892Z,4.50
2017-11-27T20:31:27.910Z,5.80
2017-11-27T20:32:27.919Z,5.20
2017-11-27T20:33:27.932Z,5.40
2017-11-27T20:34:27.923Z,1.90
2017-11-27T20:35:27.928Z,3.50
2017-11-27T20:36:27.939Z,5.50
2017-11-27T20:37:27.950Z,4.60
2017-11-27T20:38:27.958Z,3.30
2017-11-27T20:40:27.969Z,7.50
2017-11-27T20:41:27.973Z,15.70
2017-11-27T20:42:27.982Z,14.10
2017-11-27T20:43:27.995Z,8.60
2017-11-27T20:44:27.996Z,9.30